Time;durP1;ratioP1;P1;durP2;ratioP2;P2;SDS_P1;SDS_P2;PMS_P1;PMS_P2;Temp;Humidity;BMP_temperature;BMP_pressure;BME280_temperature;BME280_humidity;BME280_pressure;Samples;Min_cycle;Max_cycle;Signal;HPM_P1;HPM_P2
2022/01/19 00:00:06;;;;;;;4.20;1.60;;;;;;;26.18;28.72;98027.06;4879584;29;20040;-61
2022/01/19 00:02:31;;;;;;;6.55;1.60;;;;;;;26.19;28.73;98027.88;4877832;29;20491;-61
2022/01/19 00:04:57;;;;;;;3.38;1.50;;;;;;;26.19;28.78;98022.63;4881076;29;20138;-60
2022/01/19 00:07:22;;;;;;;4.65;1.60;;;;;;;26.19;28.71;98017.38;4881831;29;20027;-62
2022/01/19 00:09:48;;;;;;;3.38;1.60;;;;;;;26.19;28.74;98006.88;4895545;29;20739;-61
2022/01/19 00:12:13;;;;;;;3.22;1.50;;;;;;;26.18;28.68;97995.53;4894580;29;20613;-61
2022/01/19 00:14:39;;;;;;;4.40;1.48;;;;;;;26.19;28.68;97988.47;4887291;29;20031;-61
2022/01/19 00:17:04;;;;;;;3.00;1.20;;;;;;;26.17;28.82;97978.06;4892078;29;20127;-61
2022/01/19 00:19:29;;;;;;;2.92;1.55;;;;;;;26.17;28.71;97971.94;4886946;29;20035;-62
2022/01/19 00:21:55;;;;;;;3.92;1.35;;;;;;;26.18;28.82;97977.13;4894076;29;20028;-60
2022/01/19 00:24:20;;;;;;;3.15;1.55;;;;;;;26.17;28.86;97993.81;4884623;29;20031;-62
2022/01/19 00:26:47;;;;;;;5.05;1.50;;;;;;;26.18;28.81;98000.78;4884967;29;20024;-62
2022/01/19 00:29:12;;;;;;;2.08;1.25;;;;;;;26.18;28.63;97999.91;4875723;29;20029;-59
2022/01/19 00:31:38;;;;;;;3.33;1.50;;;;;;;26.18;28.63;97989.41;4893931;29;20190;-62
2022/01/19 00:34:03;;;;;;;3.38;1.50;;;;;;;26.17;28.69;97990.31;4878057;29;20032;-62
2022/01/19 00:36:29;;;;;;;5.00;1.83;;;;;;;26.16;28.68;98007.84;4881876;29;20990;-62
2022/01/19 00:38:55;;;;;;;9.30;1.60;;;;;;;26.17;28.71;98019.22;4883729;29;20032;-60
2022/01/19 00:41:20;;;;;;;4.07;1.58;;;;;;;26.16;28.58;98013.09;4875619;29;20127;-61
2022/01/19 00:43:45;;;;;;;3.25;1.38;;;;;;;26.16;28.77;98010.47;4888131;29;20043;-62
2022/01/19 00:46:11;;;;;;;3.33;1.50;;;;;;;26.16;28.87;98013.09;4898265;29;20020;-63
2022/01/19 00:48:36;;;;;;;2.95;1.40;;;;;;;26.16;28.57;98017.50;4895544;29;20028;-60
2022/01/19 00:51:02;;;;;;;2.38;1.25;;;;;;;26.16;28.65;98009.63;4894347;29;20176;-61
2022/01/19 00:53:27;;;;;;;2.95;1.70;;;;;;;26.17;28.91;98008.72;4883242;29;20139;-62
2022/01/19 00:55:53;;;;;;;2.67;1.33;;;;;;;26.14;28.83;97990.41;4882182;29;20395;-62
2022/01/19 00:58:18;;;;;;;2.70;1.40;;;;;;;26.14;28.71;97988.66;4877966;29;20529;-61
2022/01/19 01:00:44;;;;;;;2.50;1.20;;;;;;;26.13;28.81;98002.72;4894957;29;20484;-60
2022/01/19 01:03:09;;;;;;;4.28;1.50;;;;;;;26.15;28.87;98008.75;4878038;29;20039;-61
2022/01/19 01:05:35;;;;;;;2.40;1.42;;;;;;;26.13;28.74;98015.84;4897876;29;20044;-61
2022/01/19 01:08:00;;;;;;;2.97;1.45;;;;;;;26.14;28.69;98008.81;4879266;29;20065;-61
2022/01/19 01:10:26;;;;;;;2.50;1.35;;;;;;;26.14;28.70;98008.81;4897194;29;20109;-60
2022/01/19 01:12:53;;;;;;;3.33;1.33;;;;;;;26.15;28.63;98007.88;4897883;29;20131;-61
2022/01/19 01:20:33;;;;;;;2.78;1.20;;;;;;;26.13;28.82;98002.72;4886572;29;20032;-60
2022/01/19 01:22:58;;;;;;;2.38;1.20;;;;;;;26.12;28.87;97992.25;4889821;29;20915;-61
2022/01/19 01:25:24;;;;;;;3.58;1.20;;;;;;;26.13;28.78;97980.81;4875764;29;20049;-61
2022/01/19 01:27:49;;;;;;;3.95;1.42;;;;;;;26.12;28.72;97964.19;4890082;29;20561;-61
2022/01/19 01:30:15;;;;;;;2.15;1.23;;;;;;;26.10;28.69;97953.75;4876687;29;20064;-61
2022/01/19 01:32:40;;;;;;;2.65;1.10;;;;;;;26.11;28.74;97949.34;4882395;29;20547;-60
2022/01/19 01:35:06;;;;;;;3.70;1.40;;;;;;;26.10;28.77;97956.38;4890386;29;20036;-61
2022/01/19 01:37:32;;;;;;;2.00;1.15;;;;;;;26.10;28.75;97961.63;4880343;29;20025;-61
2022/01/19 01:39:57;;;;;;;1.55;1.17;;;;;;;26.10;28.74;97982.63;4898795;29;20115;-60
2022/01/19 01:42:24;;;;;;;2.22;1.23;;;;;;;26.09;28.79;97986.19;4879983;29;20410;-61
2022/01/19 01:44:52;;;;;;;2.25;1.30;;;;;;;26.10;28.87;97992.31;4884465;29;20036;-61
2022/01/19 01:47:19;;;;;;;2.88;1.17;;;;;;;26.09;28.76;97975.69;4878772;29;20083;-60
2022/01/19 01:53:26;;;;;;;3.72;1.30;;;;;;;26.08;28.66;97973.97;4888519;29;20491;-59
2022/01/19 01:55:19;;;;;;;3.70;1.20;;;;;;;26.06;28.69;97954.78;4887423;29;20095;-59
2022/01/19 01:57:44;;;;;;;2.35;1.10;;;;;;;26.07;28.78;97945.13;4885436;29;20084;-61
2022/01/19 02:00:12;;;;;;;1.65;0.80;;;;;;;26.05;28.84;97942.53;4878704;29;20636;-61
2022/01/19 02:02:39;;;;;;;3.15;1.10;;;;;;;26.06;28.80;97941.66;4884459;29;20064;-61
2022/01/19 02:05:08;;;;;;;2.15;1.00;;;;;;;26.04;28.72;97930.34;4885309;29;20042;-60
2022/01/19 02:07:49;;;;;;;4.22;1.40;;;;;;;26.06;28.71;97917.16;4883533;29;21251;-60
2022/01/19 02:10:38;;;;;;;1.65;0.93;;;;;;;26.06;28.79;97922.41;4884782;29;20718;-59
2022/01/19 02:23:51;;;;;;;3.35;1.23;;;;;;;26.02;28.83;97882.25;4881226;29;20616;-59
2022/01/19 02:26:25;;;;;;;3.85;1.13;;;;;;;26.03;28.75;97870.84;4885067;29;20574;-61
2022/01/19 02:28:59;;;;;;;1.08;0.90;;;;;;;26.02;28.82;97863.88;4881007;29;20119;-60
2022/01/19 02:42:07;;;;;;;3.03;0.88;;;;;;;26.00;29.03;97842.06;4893956;29;20099;-61
2022/01/19 02:49:43;;;;;;;1.27;1.00;;;;;;;25.98;28.80;97824.66;4884224;29;20036;-60
2022/01/19 02:52:09;;;;;;;2.75;0.77;;;;;;;25.98;28.85;97830.75;4899017;29;20032;-61
2022/01/19 02:54:34;;;;;;;1.30;1.00;;;;;;;25.97;28.79;97823.78;4903837;29;20028;-61
2022/01/19 02:57:02;;;;;;;1.73;0.95;;;;;;;25.97;28.76;97810.63;4893290;29;20092;-61
2022/01/19 03:10:07;;;;;;;1.77;1.10;;;;;;;25.94;28.75;97795.84;4896853;29;20904;-60
2022/01/19 03:12:33;;;;;;;2.38;0.90;;;;;;;25.95;28.87;97784.47;4883008;29;20037;-61
2022/01/19 03:14:58;;;;;;;0.95;0.68;;;;;;;25.94;28.80;97774.84;4885031;29;20404;-60
2022/01/19 03:17:24;;;;;;;2.53;0.90;;;;;;;25.94;28.82;97771.38;4900051;29;20640;-61
2022/01/19 03:19:49;;;;;;;1.73;1.00;;;;;;;25.95;28.99;97770.47;4895751;29;20052;-61
2022/01/19 03:22:18;;;;;;;1.27;0.73;;;;;;;25.94;28.87;97760.88;4882545;29;20044;-61
2022/01/19 03:24:49;;;;;;;1.52;0.88;;;;;;;25.94;28.76;97761.72;4882580;29;20099;-62
2022/01/19 03:27:15;;;;;;;;;;;;;;;25.94;28.71;97756.47;4897320;29;20036;-61
2022/01/19 03:29:40;;;;;;;1.65;0.75;;;;;;;25.94;28.60;97755.63;4878936;29;19925;-60
2022/01/19 03:32:06;;;;;;;1.25;0.73;;;;;;;25.93;28.83;97759.19;4883181;29;20660;-60
2022/01/19 03:34:31;;;;;;;0.90;0.80;;;;;;;25.93;28.76;97761.81;4883541;29;20032;-61
2022/01/19 03:36:57;;;;;;;1.27;0.88;;;;;;;25.92;28.74;97757.44;4894587;29;20075;-61
2022/01/19 03:39:22;;;;;;;4.60;1.00;;;;;;;25.92;28.73;97752.19;4879354;29;20024;-60
2022/01/19 03:41:48;;;;;;;6.03;1.08;;;;;;;25.91;28.86;97750.47;4880981;29;20035;-60
2022/01/19 03:44:13;;;;;;;1.25;0.80;;;;;;;25.91;28.85;97758.38;4886021;29;20951;-61
2022/01/19 03:46:53;;;;;;;1.50;1.02;;;;;;;25.89;28.71;97757.59;4882677;29;20039;-60
2022/01/19 03:49:24;;;;;;;1.55;0.80;;;;;;;25.91;28.91;97761.00;4883417;29;20028;-59
2022/01/19 03:51:50;;;;;;;0.63;0.60;;;;;;;25.91;28.76;97756.59;4895657;29;20570;-62
2022/01/19 03:54:15;;;;;;;1.25;0.80;;;;;;;25.90;28.85;97752.25;4885905;29;20043;-61
2022/01/19 03:56:40;;;;;;;2.40;0.80;;;;;;;25.90;28.87;97748.78;4901434;29;20028;-60
2022/01/19 03:59:06;;;;;;;1.30;0.80;;;;;;;25.89;28.86;97752.34;4896095;29;20043;-60
2022/01/19 04:01:31;;;;;;;2.55;1.25;;;;;;;25.90;28.86;97748.78;4881315;29;20036;-61
2022/01/19 04:08:47;;;;;;;1.50;0.80;;;;;;;25.89;28.83;97747.06;4864286;29;20032;-60
2022/01/19 04:11:16;;;;;;;3.20;0.80;;;;;;;25.89;28.80;97733.94;4872844;29;20368;-61
2022/01/19 04:13:58;;;;;;;2.92;0.75;;;;;;;25.89;28.79;97737.41;4878553;29;20216;-61
2022/01/19 04:16:23;;;;;;;1.35;0.85;;;;;;;25.88;28.73;97735.72;4862280;29;20032;-59
2022/01/19 04:18:53;;;;;;;2.20;0.85;;;;;;;25.89;28.69;97731.31;4871542;29;20116;-61
2022/01/19 04:21:18;;;;;;;1.02;0.68;;;;;;;25.88;28.70;97727.81;4875465;29;20261;-61
2022/01/19 04:23:44;;;;;;;2.35;1.05;;;;;;;25.87;28.84;97728.75;4861707;29;20035;-62
2022/01/19 04:26:12;;;;;;;6.50;1.45;;;;;;;25.83;28.75;97727.16;4868874;29;20483;-61
2022/01/19 04:28:38;;;;;;;2.78;1.08;;;;;;;25.84;28.71;97723.59;4894718;29;20079;-63
2022/01/19 04:31:03;;;;;;;1.63;0.73;;;;;;;25.85;28.88;97725.31;4881615;29;21784;-61
2022/01/19 04:33:31;;;;;;;2.15;0.88;;;;;;;25.83;28.72;97716.66;4882266;29;20048;-59
2022/01/19 04:36:18;;;;;;;0.93;0.73;;;;;;;25.85;28.86;97719.22;4882270;29;20031;-61
2022/01/19 05:03:36;;;;;;;2.15;0.75;;;;;;;25.79;28.69;97668.66;4878318;29;20220;-62
2022/01/19 05:06:10;;;;;;;1.50;0.85;;;;;;;25.78;28.91;97671.34;4872776;29;20027;-61
2022/01/19 05:08:50;;;;;;;1.63;0.80;;;;;;;25.79;28.77;97665.16;4881690;29;20033;-60
2022/01/19 05:14:00;;;;;;;2.70;0.93;;;;;;;25.78;28.83;97663.47;4883583;29;20043;-60
2022/01/19 05:16:25;;;;;;;4.15;0.63;;;;;;;25.76;28.96;97663.53;4895598;29;20067;-60
2022/01/19 05:18:51;;;;;;;1.05;0.80;;;;;;;25.75;28.89;97659.19;4872680;29;20923;-59
2022/01/19 05:21:16;;;;;;;2.85;0.85;;;;;;;25.77;28.77;97656.47;4876639;29;20024;-61
2022/01/19 05:23:42;;;;;;;1.30;0.70;;;;;;;25.77;28.88;97659.97;4876493;29;20146;-60
2022/01/19 05:26:07;;;;;;;3.03;0.88;;;;;;;25.76;28.94;97658.28;4879953;29;20044;-60
2022/01/19 05:28:33;;;;;;;1.05;0.70;;;;;;;25.76;28.83;97657.41;4896271;29;20059;-60
2022/01/19 05:30:58;;;;;;;1.65;0.60;;;;;;;25.75;28.91;97643.44;4882576;29;20564;-61
2022/01/19 05:33:24;;;;;;;1.17;0.77;;;;;;;25.77;28.71;97644.22;4882652;29;20891;-61
2022/01/19 05:35:49;;;;;;;0.88;0.65;;;;;;;25.76;28.73;97642.53;4879401;29;20028;-61
2022/01/19 05:38:15;;;;;;;3.15;0.73;;;;;;;25.73;28.88;97631.28;4877149;29;20051;-61
2022/01/19 05:40:40;;;;;;;1.15;0.60;;;;;;;25.76;28.81;97634.66;4890749;29;20031;-61
2022/01/19 05:43:06;;;;;;;1.75;0.90;;;;;;;25.75;28.76;97625.06;4881578;29;20707;-59
2022/01/19 05:45:31;;;;;;;1.75;0.90;;;;;;;25.76;28.85;97625.91;4875452;29;20048;-61
2022/01/19 05:47:57;;;;;;;0.85;0.70;;;;;;;25.76;28.80;97625.91;4876355;29;20036;-60
2022/01/19 05:50:23;;;;;;;1.65;1.02;;;;;;;25.76;28.73;97620.66;4898302;29;20033;-61
2022/01/19 05:52:49;;;;;;;1.35;0.70;;;;;;;25.75;28.73;97611.94;4882634;29;20032;-61
2022/01/19 05:55:14;;;;;;;1.20;0.77;;;;;;;25.75;28.92;97617.19;4884173;29;20047;-61
2022/01/19 05:57:40;;;;;;;2.75;0.95;;;;;;;25.75;28.91;97609.31;4881613;29;20036;-59
2022/01/19 06:00:06;;;;;;;2.22;0.85;;;;;;;25.74;28.85;97602.34;4878721;29;20043;-61
2022/01/19 06:02:31;;;;;;;1.35;0.93;;;;;;;25.74;28.87;97599.72;4882425;29;20047;-60
2022/01/19 06:04:57;;;;;;;1.52;0.70;;;;;;;25.75;28.93;97608.44;4879549;29;20440;-59
2022/01/19 06:07:28;;;;;;;1.70;0.70;;;;;;;25.73;28.88;97613.75;4878608;29;20047;-59
2022/01/19 06:10:03;;;;;;;1.80;0.90;;;;;;;25.74;28.74;97610.22;4879538;29;20028;-60
2022/01/19 06:12:29;;;;;;;1.30;0.75;;;;;;;25.74;28.81;97612.84;4881009;29;20115;-60
2022/01/19 06:14:54;;;;;;;2.13;0.80;;;;;;;25.73;29.09;97619.00;4874745;29;20036;-61
2022/01/19 06:17:19;;;;;;;1.15;0.82;;;;;;;25.74;28.78;97615.47;4875604;29;20040;-62
2022/01/19 06:19:48;;;;;;;1.42;0.80;;;;;;;25.74;28.45;97615.47;4891591;29;20039;-60
2022/01/19 06:22:14;;;;;;;0.98;0.60;;;;;;;25.74;28.79;97620.72;4885592;29;20036;-60
2022/01/19 06:24:39;;;;;;;1.45;0.60;;;;;;;25.73;28.87;97619.00;4879118;29;20475;-60
2022/01/19 06:27:05;;;;;;;1.60;0.80;;;;;;;25.74;28.64;97612.00;4884660;29;20068;-59
2022/01/19 06:29:30;;;;;;;0.95;0.75;;;;;;;25.73;28.88;97605.88;4896997;29;20033;-61
2022/01/19 06:31:56;;;;;;;0.82;0.80;;;;;;;25.73;28.78;97605.88;4884580;29;20043;-61
2022/01/19 06:34:21;;;;;;;1.88;0.80;;;;;;;25.72;28.92;97601.56;4890228;29;20031;-60
2022/01/19 06:36:51;;;;;;;1.65;1.00;;;;;;;25.74;28.92;97607.59;4889224;29;20036;-61
2022/01/19 06:39:16;;;;;;;2.45;0.80;;;;;;;25.74;28.87;97601.50;4896222;29;20040;-59
2022/01/19 06:41:42;;;;;;;2.22;0.90;;;;;;;25.73;28.79;97600.63;4884764;29;20029;-62
2022/01/19 06:44:07;;;;;;;1.98;0.80;;;;;;;25.73;28.80;97600.63;4886830;29;20054;-59
2022/01/19 06:46:33;;;;;;;0.73;0.73;;;;;;;25.74;28.90;97601.50;4886251;29;20083;-61
2022/01/19 06:48:58;;;;;;;1.25;0.93;;;;;;;25.74;28.88;97597.09;4898838;29;20051;-61
2022/01/19 06:51:24;;;;;;;2.40;1.02;;;;;;;25.73;28.76;97595.38;4900417;29;20040;-61
2022/01/19 06:53:50;;;;;;;0.93;0.77;;;;;;;25.74;28.95;97597.09;4881841;29;20530;-61
2022/01/19 06:56:16;;;;;;;1.40;0.90;;;;;;;25.74;28.74;97591.00;4882076;29;20104;-62
2022/01/19 06:58:41;;;;;;;1.08;0.70;;;;;;;25.73;28.88;97598.00;4877152;29;20032;-61
2022/01/19 07:01:07;;;;;;;1.77;0.75;;;;;;;25.75;28.88;97587.44;4898708;29;20145;-61
2022/01/19 07:03:33;;;;;;;0.93;0.73;;;;;;;25.75;28.89;97598.81;4884570;29;20036;-60
2022/01/19 07:05:58;;;;;;;0.70;0.60;;;;;;;25.75;28.85;97590.94;4885711;29;20680;-60
2022/01/19 07:08:24;;;;;;;1.10;0.70;;;;;;;25.76;28.80;97592.66;4885229;29;20137;-61
2022/01/19 07:10:49;;;;;;;1.52;0.73;;;;;;;25.77;28.58;97596.09;4880752;29;20358;-62
2022/01/19 07:13:15;;;;;;;1.67;0.70;;;;;;;25.78;28.90;97595.22;4896917;29;20028;-61
2022/01/19 07:15:40;;;;;;;0.82;0.70;;;;;;;25.77;28.75;97589.09;4884110;29;20041;-61
2022/01/19 07:18:06;;;;;;;0.68;0.50;;;;;;;25.77;28.86;97581.22;4884341;29;20039;-60
2022/01/19 07:20:32;;;;;;;0.63;0.57;;;;;;;25.78;28.73;97590.78;4891863;29;20576;-61
2022/01/19 07:23:00;;;;;;;0.95;0.60;;;;;;;25.77;28.84;97591.72;4880882;29;20059;-61
2022/01/19 07:25:25;;;;;;;1.88;0.85;;;;;;;25.77;28.74;97586.47;4881396;29;20035;-61
2022/01/19 07:27:50;;;;;;;1.60;0.70;;;;;;;25.77;28.82;97586.47;4878692;29;20056;-60
2022/01/19 07:30:16;;;;;;;1.52;0.82;;;;;;;25.79;28.83;97589.91;4895051;29;20028;-61
2022/01/19 07:32:42;;;;;;;1.95;1.00;;;;;;;25.79;28.73;97584.66;4892164;29;20040;-61
2022/01/19 07:35:08;;;;;;;2.08;0.90;;;;;;;25.79;28.71;97589.91;4873686;29;20024;-61
2022/01/19 07:37:34;;;;;;;13.93;3.03;;;;;;;25.78;28.54;97582.91;4878262;29;20032;-61
2022/01/19 07:39:59;;;;;;;15.30;5.07;;;;;;;25.77;28.67;97588.22;4873256;29;20059;-61
2022/01/19 07:42:25;;;;;;;14.77;4.18;;;;;;;25.75;28.72;97588.31;4882384;29;20534;-61
2022/01/19 07:44:51;;;;;;;10.77;3.35;;;;;;;25.76;28.50;97579.50;4877285;29;20748;-61
2022/01/19 07:47:16;;;;;;;12.35;3.63;;;;;;;25.73;28.75;97574.38;4886092;29;20039;-61
2022/01/19 07:49:42;;;;;;;18.45;4.10;;;;;;;25.75;28.49;97572.56;4884020;29;20024;-60
2022/01/19 07:52:07;;;;;;;10.10;4.07;;;;;;;25.74;28.31;97576.09;4877777;29;20050;-61
2022/01/19 07:54:35;;;;;;;12.18;4.63;;;;;;;25.73;28.20;97557.78;4888301;29;20481;-59
2022/01/19 07:57:00;;;;;;;10.20;4.82;;;;;;;25.73;27.93;97561.25;4874791;29;20036;-62
2022/01/19 07:59:26;;;;;;;13.25;4.60;;;;;;;25.74;27.69;97560.31;4899438;28;20059;-62
2022/01/19 08:01:53;;;;;;;11.32;4.25;;;;;;;25.74;27.64;97555.09;4904225;28;20042;-63
2022/01/19 08:04:20;;;;;;;10.52;4.15;;;;;;;25.74;27.47;97562.94;4905934;28;20059;-62
2022/01/19 08:06:47;;;;;;;9.15;4.63;;;;;;;25.74;27.39;97549.00;4903521;28;20352;-61
2022/01/19 08:09:13;;;;;;;9.70;3.95;;;;;;;25.75;27.28;97562.06;4904021;28;20129;-62
2022/01/19 08:11:38;;;;;;;9.20;4.40;;;;;;;25.75;27.09;97562.06;4907584;28;20038;-63
2022/01/19 08:14:04;;;;;;;7.15;3.97;;;;;;;25.75;27.06;97566.44;4900500;28;20746;-62
2022/01/19 08:16:29;;;;;;;9.85;3.65;;;;;;;25.77;26.91;97560.22;4922125;28;20027;-61
2022/01/19 08:18:54;;;;;;;11.48;4.20;;;;;;;25.76;26.86;97562.91;4907497;28;20148;-64
2022/01/19 08:21:20;;;;;;;7.40;4.07;;;;;;;25.77;26.81;97569.84;4908410;28;20028;-62
2022/01/19 08:23:45;;;;;;;9.65;3.60;;;;;;;25.76;26.81;97563.75;4912199;28;20027;-63
2022/01/19 08:26:15;;;;;;;6.35;3.35;;;;;;;25.78;26.72;97564.53;4917670;28;20529;-62
2022/01/19 08:28:41;;;;;;;7.13;3.50;;;;;;;25.78;26.73;97561.91;4925972;28;20031;-61
2022/01/19 08:31:06;;;;;;;6.57;3.42;;;;;;;25.79;26.53;97558.41;4920876;28;20023;-61
2022/01/19 08:33:31;;;;;;;8.07;3.72;;;;;;;25.80;26.48;97549.59;4917900;28;20031;-61
2022/01/19 08:35:57;;;;;;;10.00;4.13;;;;;;;25.81;26.57;97555.69;4921670;28;20920;-63
2022/01/19 08:38:23;;;;;;;6.55;3.90;;;;;;;25.80;26.45;97557.47;4921870;28;20031;-62
2022/01/19 08:40:49;;;;;;;7.45;2.85;;;;;;;25.82;26.51;97552.16;4901781;28;20051;-62
2022/01/19 08:43:14;;;;;;;6.30;2.50;;;;;;;25.83;26.94;97554.69;4905737;28;20631;-62
2022/01/19 08:45:40;;;;;;;4.35;2.45;;;;;;;25.83;27.25;97549.44;4900132;28;20078;-62
2022/01/19 08:48:05;;;;;;;5.85;2.75;;;;;;;25.86;27.48;97552.88;4903300;28;20133;-62
2022/01/19 08:50:30;;;;;;;6.30;2.50;;;;;;;25.87;27.59;97555.44;4908538;28;20034;-62
2022/01/19 08:52:56;;;;;;;6.57;2.35;;;;;;;25.88;27.72;97551.03;4900675;28;21141;-63
2022/01/19 08:55:21;;;;;;;5.00;2.58;;;;;;;25.90;27.74;97549.22;4928847;28;20031;-63
2022/01/19 08:57:47;;;;;;;4.55;2.35;;;;;;;25.90;27.78;97551.84;4909159;28;20107;-61
2022/01/19 09:00:14;;;;;;;4.68;2.50;;;;;;;25.93;27.90;97546.47;4906224;28;21136;-62
2022/01/19 09:02:40;;;;;;;3.50;2.10;;;;;;;25.94;27.79;97553.41;4906963;28;20031;-63
2022/01/19 09:05:06;;;;;;;11.18;2.20;;;;;;;25.96;27.81;97543.69;4905070;28;20031;-63
2022/01/19 09:07:31;;;;;;;9.65;2.10;;;;;;;25.98;27.96;97541.88;4911136;28;20027;-62
2022/01/19 09:09:57;;;;;;;4.25;2.08;;;;;;;26.01;27.86;97544.34;4909541;28;20039;-62
2022/01/19 09:12:23;;;;;;;6.22;2.45;;;;;;;26.04;27.87;97548.63;4905377;28;20061;-62
2022/01/19 09:14:49;;;;;;;7.05;2.50;;;;;;;26.05;27.95;97548.56;4909825;28;20724;-63
2022/01/19 09:17:14;;;;;;;6.65;2.42;;;;;;;26.06;28.11;97545.03;4906898;28;20335;-62
2022/01/19 09:19:39;;;;;;;5.28;2.13;;;;;;;26.09;27.99;97550.13;4913961;28;20121;-61
2022/01/19 09:22:09;;;;;;;14.75;3.70;;;;;;;26.12;27.56;97538.63;4902497;28;20055;-67
2022/01/19 09:24:35;;;;;;;15.40;6.57;;;;;;;26.06;23.80;97534.53;4918043;28;20046;-65
2022/01/19 09:27:01;;;;;;;28.70;7.60;;;;;;;25.86;22.06;97532.75;4922370;28;20525;-67
2022/01/19 09:29:26;;;;;;;20.38;7.63;;;;;;;25.64;20.91;97543.25;4897982;28;20099;-67
2022/01/19 09:31:54;;;;;;;15.07;7.15;;;;;;;25.37;21.17;97541.66;4905121;28;20043;-65
2022/01/19 09:34:21;;;;;;;16.42;6.30;;;;;;;25.18;21.37;97536.28;4911125;28;20042;-67
2022/01/19 09:36:47;;;;;;;10.88;5.10;;;;;;;25.07;21.92;97538.44;4910385;28;20130;-66
2022/01/19 09:39:15;;;;;;;12.77;4.43;;;;;;;25.00;22.63;97536.06;4913784;28;20031;-68
2022/01/19 09:41:41;;;;;;;6.32;3.72;;;;;;;24.97;23.01;97528.31;4906197;28;20490;-66
2022/01/19 09:44:08;;;;;;;5.57;3.28;;;;;;;25.00;23.40;97532.56;4907958;28;20042;-66
2022/01/19 09:46:34;;;;;;;13.90;3.22;;;;;;;25.02;24.01;97521.13;4905359;28;20044;-68
2022/01/19 09:48:59;;;;;;;4.70;2.72;;;;;;;25.05;24.23;97521.00;4925897;28;20683;-65
2022/01/19 09:51:25;;;;;;;8.18;2.80;;;;;;;25.13;24.46;97525.94;4902205;28;20062;-65
2022/01/19 09:53:51;;;;;;;10.52;2.47;;;;;;;25.18;24.60;97531.03;4897608;28;20075;-64
2022/01/19 09:56:17;;;;;;;7.03;2.38;;;;;;;25.23;24.82;97518.59;4905642;28;20031;-64
2022/01/19 09:58:42;;;;;;;7.25;2.47;;;;;;;25.30;24.91;97514.81;4905917;28;20046;-63
2022/01/19 10:01:08;;;;;;;9.35;2.13;;;;;;;25.36;25.04;97516.31;4900551;28;20071;-62
2022/01/19 10:03:33;;;;;;;4.80;2.10;;;;;;;25.42;25.08;97513.47;4907212;28;21362;-64
2022/01/19 10:06:07;;;;;;;4.80;2.10;;;;;;;25.46;25.10;97503.69;4901244;28;20036;-63
2022/01/19 10:08:46;;;;;;;4.85;2.10;;;;;;;25.50;25.42;97500.03;4913156;28;21078;-62
2022/01/19 10:11:19;;;;;;;4.38;1.80;;;;;;;25.55;25.47;97498.06;4911996;28;20059;-64
2022/01/19 10:17:01;;;;;;;5.72;2.00;;;;;;;25.63;25.63;97487.28;4937827;28;20103;-63
2022/01/19 10:19:31;;;;;;;10.35;2.10;;;;;;;25.65;25.81;97476.72;4915434;28;20513;-64
2022/01/19 10:21:57;;;;;;;4.65;2.08;;;;;;;25.62;25.76;97469.00;4930334;28;20449;-64
2022/01/19 10:24:33;;;;;;;4.65;2.38;;;;;;;25.69;25.81;97460.78;4916444;28;20091;-63
2022/01/19 10:27:18;;;;;;;4.90;1.88;;;;;;;25.72;26.07;97451.91;4901204;28;20609;-64
2022/01/19 10:29:44;;;;;;;4.68;1.88;;;;;;;25.74;26.05;97439.56;4923108;28;20138;-64
2022/01/19 10:32:09;;;;;;;7.03;1.98;;;;;;;25.76;26.18;97434.25;4925985;28;20521;-65
2022/01/19 10:34:43;;;;;;;5.35;1.67;;;;;;;25.78;26.38;97430.66;4906837;28;20042;-64
2022/01/19 10:37:09;;;;;;;5.85;1.80;;;;;;;25.93;26.83;97420.44;4913507;28;20039;-65
2022/01/19 10:39:42;;;;;;;4.47;2.15;;;;;;;25.98;26.58;97420.19;4905116;28;21380;-63
2022/01/19 10:42:11;;;;;;;7.07;1.80;;;;;;;26.03;26.55;97416.47;4901824;28;20163;-64
2022/01/19 10:44:41;;;;;;;9.52;2.53;;;;;;;26.04;26.56;97412.91;4902293;28;20086;-63
2022/01/19 10:47:07;;;;;;;6.70;2.63;;;;;;;26.04;26.57;97409.41;4904380;28;20062;-65
2022/01/19 10:49:54;;;;;;;14.50;5.50;;;;;;;26.02;24.56;97411.28;4907240;28;20065;-62
2022/01/19 10:52:27;;;;;;;6.28;3.78;;;;;;;25.93;24.53;97407.28;4902344;28;20114;-61
2022/01/19 10:54:52;;;;;;;8.55;2.50;;;;;;;25.91;25.25;97411.75;4912606;28;20030;-62
2022/01/19 10:57:18;;;;;;;9.82;2.35;;;;;;;25.89;25.60;97400.47;4911110;28;20027;-62
2022/01/19 10:59:43;;;;;;;5.28;2.00;;;;;;;25.88;26.04;97409.25;4910421;28;20039;-62
2022/01/19 11:02:12;;;;;;;10.38;2.13;;;;;;;25.89;26.29;97400.47;4904053;28;20920;-62
2022/01/19 11:04:38;;;;;;;4.53;1.90;;;;;;;25.89;26.41;97400.47;4910242;28;20031;-62
2022/01/19 11:07:11;;;;;;;4.93;1.90;;;;;;;25.89;26.55;97395.22;4914197;28;20828;-62
2022/01/19 11:09:59;;;;;;;4.35;2.00;;;;;;;25.91;26.53;97396.00;4929326;28;20092;-61
2022/01/19 11:12:31;;;;;;;7.18;1.83;;;;;;;25.91;26.65;97393.38;4903551;28;20027;-62
2022/01/19 11:14:57;;;;;;;12.00;1.80;;;;;;;25.92;26.84;97385.41;4912312;28;20032;-62
2022/01/19 11:17:22;;;;;;;5.28;1.77;;;;;;;25.93;27.11;97384.50;4907755;28;20124;-62
2022/01/19 11:19:49;;;;;;;9.27;1.95;;;;;;;25.95;26.70;97393.19;4901725;28;20046;-62
2022/01/19 11:22:31;;;;;;;3.38;1.63;;;;;;;25.97;27.09;97393.06;4908448;28;21111;-63
2022/01/19 11:24:56;;;;;;;6.40;1.50;;;;;;;25.99;27.16;97391.25;4903725;28;20038;-63
2022/01/19 11:27:23;;;;;;;3.13;1.60;;;;;;;26.00;27.52;97376.38;4906413;28;20747;-63
2022/01/19 11:30:22;;;;;;;4.50;1.52;;;;;;;26.02;27.51;97375.38;4910633;28;20019;-63
2022/01/19 11:33:06;;;;;;;4.30;1.38;;;;;;;26.04;27.65;97370.88;4913392;28;20031;-63
2022/01/19 11:35:33;;;;;;;5.85;1.85;;;;;;;26.05;27.80;97362.06;4918802;28;20024;-62
2022/01/19 11:37:58;;;;;;;5.53;1.55;;;;;;;26.08;27.86;97361.94;4904158;28;20039;-62
2022/01/19 11:40:26;;;;;;;3.92;1.60;;;;;;;26.09;27.99;97360.19;4907940;28;20514;-62
2022/01/19 11:43:23;;;;;;;3.80;1.65;;;;;;;26.06;27.88;97348.03;4905078;28;20059;-61
2022/01/19 11:45:49;;;;;;;2.97;1.50;;;;;;;26.12;27.97;97354.78;4902049;28;20031;-61
2022/01/19 11:48:28;;;;;;;4.43;1.65;;;;;;;26.13;28.15;97353.88;4907909;28;20051;-63
2022/01/19 11:50:55;;;;;;;4.07;1.40;;;;;;;26.14;28.20;97344.19;4904943;28;20050;-64
2022/01/19 11:53:20;;;;;;;3.28;1.55;;;;;;;26.16;28.28;97345.00;4908159;28;20068;-63
2022/01/19 11:56:03;;;;;;;2.65;1.30;;;;;;;26.14;28.20;97336.31;4925636;28;20521;-63
2022/01/19 11:58:28;;;;;;;4.50;2.08;;;;;;;26.18;28.15;97338.75;4924488;28;20138;-62
2022/01/19 12:00:55;;;;;;;7.80;3.70;;;;;;;26.19;27.47;97339.59;4910281;28;20035;-62
2022/01/19 12:03:24;;;;;;;4.75;2.10;;;;;;;26.18;27.58;97337.88;4914930;28;20458;-64
2022/01/19 12:05:51;;;;;;;5.20;2.00;;;;;;;26.18;27.78;97332.63;4919899;28;20425;-63
2022/01/19 12:08:22;;;;;;;14.52;6.85;;;;;;;26.14;26.61;97325.81;4914466;28;20062;-64
2022/01/19 12:10:49;;;;;;;12.95;4.20;;;;;;;26.11;26.57;97318.94;4924534;28;20042;-64
2022/01/19 12:16:34;;;;;;;4.57;2.50;;;;;;;26.08;27.09;97326.94;4908242;28;20157;-63
2022/01/19 12:19:05;;;;;;;8.73;2.40;;;;;;;26.07;27.27;97318.22;4913550;28;20030;-62
2022/01/19 12:21:31;;;;;;;10.32;2.35;;;;;;;26.09;27.43;97323.41;4909615;28;20046;-63
2022/01/19 12:23:56;;;;;;;9.60;2.33;;;;;;;26.08;27.63;97313.81;4915810;28;20090;-62
2022/01/19 12:26:22;;;;;;;5.95;2.10;;;;;;;26.09;27.75;97319.00;4913698;28;20031;-63
2022/01/19 12:28:51;;;;;;;9.38;2.40;;;;;;;26.12;28.07;97311.91;4907842;28;20023;-63
2022/01/19 12:31:34;;;;;;;5.50;2.25;;;;;;;26.12;28.04;97312.75;4908577;28;20035;-62
2022/01/19 12:34:02;;;;;;;3.05;1.73;;;;;;;26.15;28.04;97317.00;4905709;28;20031;-63
2022/01/19 12:36:58;;;;;;;7.28;2.17;;;;;;;26.17;28.09;97325.69;4904442;28;20035;-61
2022/01/19 12:39:26;;;;;;;7.25;2.08;;;;;;;26.19;28.19;97326.44;4905728;28;20043;-62
2022/01/19 12:42:00;;;;;;;4.82;2.00;;;;;;;26.20;28.23;97320.28;4904497;28;20037;-62
2022/01/19 12:44:35;;;;;;;7.28;2.20;;;;;;;26.20;28.26;97312.41;4919231;28;20041;-63
2022/01/19 12:47:01;;;;;;;4.10;1.88;;;;;;;26.22;28.28;97308.78;4922145;28;21285;-63
2022/01/19 12:49:28;;;;;;;4.97;1.70;;;;;;;26.23;28.27;97318.38;4904499;28;20476;-62
2022/01/19 12:51:54;;;;;;;6.45;1.88;;;;;;;26.25;28.18;97307.78;4906511;28;20032;-62
2022/01/19 12:54:27;;;;;;;6.10;1.80;;;;;;;26.27;28.36;97311.22;4906313;28;20032;-62
2022/01/19 12:57:03;;;;;;;5.30;1.77;;;;;;;26.28;28.44;97305.03;4916803;28;20046;-62